Terminal Aerodrome Forecast
Issued by NWS Mobile, AL

Home | Current Version | Previous Version | Text Only | Print | Product List | Glossary On
Versions: 1 2 3 4 5 6 7 8 9 10 11 12 13 14 15 16 17 18 19 20 21 22 23 24 25 26 27 28 29 30
000
FTUS44 KMOB 282300
TAFMOB
TAF
KMOB 282334Z 2900/2924 VRB03KT P6SM FEW060 SCT100 BKN250
     FM291500 15009KT P6SM FEW040 BKN150 BKN250 PROB30 2917/2923 5SM
      TSRA BKN040CB=

USA.gov is the U.S. government's official web portal to all federal, state and local government web resources and services.